sensor_id;sensor_type;location;lat;lon;timestamp;temperature;humidity
28069;DHT22;15382;47.578;8.086;2022-11-11T00:01:53;5.80;99.90
28069;DHT22;15382;47.578;8.086;2022-11-11T00:12:12;5.60;99.90
28069;DHT22;15382;47.578;8.086;2022-11-11T00:22:31;5.60;99.90
28069;DHT22;15382;47.578;8.086;2022-11-11T00:33:09;5.50;99.90
28069;DHT22;15382;47.578;8.086;2022-11-11T00:43:29;5.60;99.90
28069;DHT22;15382;47.578;8.086;2022-11-11T00:53:48;5.70;99.90
28069;DHT22;15382;47.578;8.086;2022-11-11T01:04:07;5.30;99.90
28069;DHT22;15382;47.578;8.086;2022-11-11T01:14:26;5.20;99.90
28069;DHT22;15382;47.578;8.086;2022-11-11T01:24:45;5.30;99.90
28069;DHT22;15382;47.578;8.086;2022-11-11T01:35:06;5.30;99.90
28069;DHT22;15382;47.578;8.086;2022-11-11T01:56:04;4.90;99.90
28069;DHT22;15382;47.578;8.086;2022-11-11T02:06:24;4.80;99.90
28069;DHT22;15382;47.578;8.086;2022-11-11T02:16:44;4.80;99.90
28069;DHT22;15382;47.578;8.086;2022-11-11T02:27:04;4.80;99.90
28069;DHT22;15382;47.578;8.086;2022-11-11T02:37:27;4.60;99.90
28069;DHT22;15382;47.578;8.086;2022-11-11T02:47:46;4.50;99.90
28069;DHT22;15382;47.578;8.086;2022-11-11T02:58:06;4.40;99.90
28069;DHT22;15382;47.578;8.086;2022-11-11T03:08:25;4.20;99.90
28069;DHT22;15382;47.578;8.086;2022-11-11T03:18:45;4.10;99.90
28069;DHT22;15382;47.578;8.086;2022-11-11T03:29:04;3.90;99.90
28069;DHT22;15382;47.578;8.086;2022-11-11T03:39:23;4.10;99.90
28069;DHT22;15382;47.578;8.086;2022-11-11T03:49:42;3.90;99.90
28069;DHT22;15382;47.578;8.086;2022-11-11T04:00:04;4.20;99.90
28069;DHT22;15382;47.578;8.086;2022-11-11T04:10:23;4.40;99.90
28069;DHT22;15382;47.578;8.086;2022-11-11T04:20:43;4.70;99.90
28069;DHT22;15382;47.578;8.086;2022-11-11T04:31:21;5.00;99.90
28069;DHT22;15382;47.578;8.086;2022-11-11T04:41:40;5.40;99.90
28069;DHT22;15382;47.578;8.086;2022-11-11T04:51:59;5.40;99.90
28069;DHT22;15382;47.578;8.086;2022-11-11T05:02:37;5.10;99.90
28069;DHT22;15382;47.578;8.086;2022-11-11T05:13:15;5.40;99.90
28069;DHT22;15382;47.578;8.086;2022-11-11T05:23:53;5.40;99.90
28069;DHT22;15382;47.578;8.086;2022-11-11T05:34:31;5.40;99.90
28069;DHT22;15382;47.578;8.086;2022-11-11T05:44:50;5.60;99.90
28069;DHT22;15382;47.578;8.086;2022-11-11T05:55:10;5.80;99.90
28069;DHT22;15382;47.578;8.086;2022-11-11T06:05:29;5.90;99.90
28069;DHT22;15382;47.578;8.086;2022-11-11T06:15:49;6.20;99.90
28069;DHT22;15382;47.578;8.086;2022-11-11T06:26:09;6.30;99.90
28069;DHT22;15382;47.578;8.086;2022-11-11T06:36:32;6.40;99.90
28069;DHT22;15382;47.578;8.086;2022-11-11T06:46:51;6.30;99.90
28069;DHT22;15382;47.578;8.086;2022-11-11T06:57:10;6.10;99.90
28069;DHT22;15382;47.578;8.086;2022-11-11T07:07:29;6.10;99.90
28069;DHT22;15382;47.578;8.086;2022-11-11T07:17:48;6.00;99.90
28069;DHT22;15382;47.578;8.086;2022-11-11T07:28:08;6.10;99.90
28069;DHT22;15382;47.578;8.086;2022-11-11T07:38:27;6.30;99.90
28069;DHT22;15382;47.578;8.086;2022-11-11T07:48:46;6.40;99.90
28069;DHT22;15382;47.578;8.086;2022-11-11T07:59:05;6.50;99.90
28069;DHT22;15382;47.578;8.086;2022-11-11T08:09:25;6.60;99.90
28069;DHT22;15382;47.578;8.086;2022-11-11T08:19:44;6.70;99.90
28069;DHT22;15382;47.578;8.086;2022-11-11T08:30:06;6.80;99.90
28069;DHT22;15382;47.578;8.086;2022-11-11T08:40:25;6.90;99.90
28069;DHT22;15382;47.578;8.086;2022-11-11T08:50:44;7.00;99.90
28069;DHT22;15382;47.578;8.086;2022-11-11T09:01:09;7.10;99.90
28069;DHT22;15382;47.578;8.086;2022-11-11T09:11:28;7.10;99.90
28069;DHT22;15382;47.578;8.086;2022-11-11T09:21:54;7.20;99.90
28069;DHT22;15382;47.578;8.086;2022-11-11T09:32:13;7.30;99.90
28069;DHT22;15382;47.578;8.086;2022-11-11T09:42:52;7.60;99.90
28069;DHT22;15382;47.578;8.086;2022-11-11T10:03:40;8.00;99.90
28069;DHT22;15382;47.578;8.086;2022-11-11T10:14:01;8.20;99.90
28069;DHT22;15382;47.578;8.086;2022-11-11T10:24:41;8.50;99.90
28069;DHT22;15382;47.578;8.086;2022-11-11T10:35:17;8.50;99.90
28069;DHT22;15382;47.578;8.086;2022-11-11T10:45:45;8.90;99.90
28069;DHT22;15382;47.578;8.086;2022-11-11T11:06:42;9.60;99.90
28069;DHT22;15382;47.578;8.086;2022-11-11T11:17:21;10.10;99.90
28069;DHT22;15382;47.578;8.086;2022-11-11T11:27:43;10.30;99.90
28069;DHT22;15382;47.578;8.086;2022-11-11T11:38:04;10.70;99.90
28069;DHT22;15382;47.578;8.086;2022-11-11T11:48:38;10.90;99.90
28069;DHT22;15382;47.578;8.086;2022-11-11T12:20:29;11.00;99.90
28069;DHT22;15382;47.578;8.086;2022-11-11T12:31:05;11.30;99.90
28069;DHT22;15382;47.578;8.086;2022-11-11T13:23:59;12.40;99.90
28069;DHT22;15382;47.578;8.086;2022-11-11T13:34:21;12.90;99.90
28069;DHT22;15382;47.578;8.086;2022-11-11T13:44:52;12.70;99.90
28069;DHT22;15382;47.578;8.086;2022-11-11T13:55:36;12.80;99.90
28069;DHT22;15382;47.578;8.086;2022-11-11T14:26:59;10.90;99.90
28069;DHT22;15382;47.578;8.086;2022-11-11T14:47:59;10.90;99.90
28069;DHT22;15382;47.578;8.086;2022-11-11T14:58:25;10.70;99.90
28069;DHT22;15382;47.578;8.086;2022-11-11T15:08:50;10.50;99.90
28069;DHT22;15382;47.578;8.086;2022-11-11T15:40:29;9.90;99.90
28069;DHT22;15382;47.578;8.086;2022-11-11T15:50:49;9.80;99.90
28069;DHT22;15382;47.578;8.086;2022-11-11T16:01:10;9.50;99.90
28069;DHT22;15382;47.578;8.086;2022-11-11T16:11:30;9.40;99.90
28069;DHT22;15382;47.578;8.086;2022-11-11T16:42:43;9.30;99.90
28069;DHT22;15382;47.578;8.086;2022-11-11T16:53:02;9.20;99.90
28069;DHT22;15382;47.578;8.086;2022-11-11T17:03:26;9.10;99.90
28069;DHT22;15382;47.578;8.086;2022-11-11T17:13:45;9.10;99.90
28069;DHT22;15382;47.578;8.086;2022-11-11T17:24:04;9.20;99.90
28069;DHT22;15382;47.578;8.086;2022-11-11T17:34:23;9.20;99.90
28069;DHT22;15382;47.578;8.086;2022-11-11T17:44:42;9.10;99.90
28069;DHT22;15382;47.578;8.086;2022-11-11T17:55:02;9.00;99.90
28069;DHT22;15382;47.578;8.086;2022-11-11T18:05:21;9.00;99.90
28069;DHT22;15382;47.578;8.086;2022-11-11T18:15:41;8.80;99.90
28069;DHT22;15382;47.578;8.086;2022-11-11T18:26:01;8.80;99.90
28069;DHT22;15382;47.578;8.086;2022-11-11T18:36:20;8.80;99.90
28069;DHT22;15382;47.578;8.086;2022-11-11T18:46:40;8.80;99.90
28069;DHT22;15382;47.578;8.086;2022-11-11T18:57:00;9.30;99.90
28069;DHT22;15382;47.578;8.086;2022-11-11T19:07:19;9.40;99.90
28069;DHT22;15382;47.578;8.086;2022-11-11T19:17:38;9.40;99.90
28069;DHT22;15382;47.578;8.086;2022-11-11T19:27:57;9.00;99.90
28069;DHT22;15382;47.578;8.086;2022-11-11T19:38:17;8.90;99.90
28069;DHT22;15382;47.578;8.086;2022-11-11T19:48:36;8.80;99.90
28069;DHT22;15382;47.578;8.086;2022-11-11T19:58:55;8.70;99.90
28069;DHT22;15382;47.578;8.086;2022-11-11T20:09:15;8.70;99.90
28069;DHT22;15382;47.578;8.086;2022-11-11T20:19:34;8.50;99.90
28069;DHT22;15382;47.578;8.086;2022-11-11T20:29:53;8.40;99.90
28069;DHT22;15382;47.578;8.086;2022-11-11T20:40:12;8.30;99.90
28069;DHT22;15382;47.578;8.086;2022-11-11T20:50:31;8.20;99.90
28069;DHT22;15382;47.578;8.086;2022-11-11T21:00:51;8.20;99.90
28069;DHT22;15382;47.578;8.086;2022-11-11T21:11:12;8.10;99.90
28069;DHT22;15382;47.578;8.086;2022-11-11T21:21:33;8.10;99.90
28069;DHT22;15382;47.578;8.086;2022-11-11T21:31:52;8.00;99.90
28069;DHT22;15382;47.578;8.086;2022-11-11T21:42:11;7.90;99.90
28069;DHT22;15382;47.578;8.086;2022-11-11T21:52:31;7.80;99.90
28069;DHT22;15382;47.578;8.086;2022-11-11T22:02:50;7.80;99.90
28069;DHT22;15382;47.578;8.086;2022-11-11T22:13:09;7.70;99.90
28069;DHT22;15382;47.578;8.086;2022-11-11T22:23:28;7.60;99.90
28069;DHT22;15382;47.578;8.086;2022-11-11T22:33:55;7.70;99.90
28069;DHT22;15382;47.578;8.086;2022-11-11T22:44:15;7.70;99.90
28069;DHT22;15382;47.578;8.086;2022-11-11T22:54:34;7.60;99.90
28069;DHT22;15382;47.578;8.086;2022-11-11T23:04:53;7.50;99.90
28069;DHT22;15382;47.578;8.086;2022-11-11T23:15:12;7.50;99.90
28069;DHT22;15382;47.578;8.086;2022-11-11T23:25:33;7.30;99.90
28069;DHT22;15382;47.578;8.086;2022-11-11T23:35:52;7.30;99.90
28069;DHT22;15382;47.578;8.086;2022-11-11T23:46:11;7.30;99.90
28069;DHT22;15382;47.578;8.086;2022-11-11T23:56:31;7.20;99.90
